Time;durP1;ratioP1;P1;durP2;ratioP2;P2;SDS_P1;SDS_P2;PMS_P1;PMS_P2;Temp;Humidity;BMP_temperature;BMP_pressure;BME280_temperature;BME280_humidity;BME280_pressure;Samples;Min_cycle;Max_cycle;Signal;HPM_P1;HPM_P2
2023/09/03 00:00:22;;;;;;;;;;;;;;;12.95;100.00;102675.16;5035323;28;19978;-80
2023/09/03 00:03:10;;;;;;;;;;;;;;;12.92;100.00;102666.38;5032234;28;20168;-79
2023/09/03 00:05:56;;;;;;;;;;;;;;;12.90;100.00;102679.69;5032551;28;19929;-79
2023/09/03 00:08:42;;;;;;;;;;;;;;;12.88;100.00;102678.88;5037250;28;19939;-80
2023/09/03 00:11:30;;;;;;;;;;;;;;;12.87;100.00;102682.44;5037279;28;19933;-79
2023/09/03 00:14:16;;;;;;;;;;;;;;;12.84;100.00;102664.78;5037107;28;19936;-81
2023/09/03 00:17:02;;;;;;;;;;;;;;;12.82;100.00;102658.66;5037395;28;19939;-80
2023/09/03 00:19:47;;;;;;;;;;;;;;;12.81;100.00;102667.50;5036098;28;19933;-80
2023/09/03 00:22:33;;;;;;;;;;;;;;;12.78;100.00;102670.28;5025302;28;20059;-80
2023/09/03 00:25:19;;;;;;;;;;;;;;;12.77;100.00;102676.50;5022730;28;19954;-79
2023/09/03 00:28:04;;;;;;;;;;;;;;;12.78;100.00;102678.25;5035964;28;19959;-80
2023/09/03 00:31:03;;;;;;;;;;;;;;;12.79;100.00;102666.69;5034444;28;20020;-80
2023/09/03 00:33:49;;;;;;;;;;;;;;;12.79;100.00;102666.69;5037239;28;20367;-79
2023/09/03 00:36:34;;;;;;;;;;;;;;;12.78;100.00;102662.28;5034615;28;19935;-79
2023/09/03 00:39:20;;;;;;;;;;;;;;;12.76;100.00;102664.13;5035869;28;19933;-79
2023/09/03 00:42:06;;;;;;;;;;;;;;;12.76;100.00;102656.16;5036411;28;19929;-80
2023/09/03 00:44:54;;;;;;;;;;;;;;;12.76;100.00;102657.00;5034297;28;19986;-79
2023/09/03 00:47:39;;;;;;;;;;;;;;;12.75;100.00;102657.06;5033232;28;19925;-79
2023/09/03 00:50:25;;;;;;;;;;;;;;;12.74;100.00;102660.63;5033719;28;19925;-79
2023/09/03 00:53:11;;;;;;;;;;;;;;;12.73;100.00;102665.06;5035429;28;20410;-79
2023/09/03 00:56:00;;;;;;;;;;;;;;;12.76;100.00;102682.72;5034341;28;20384;-80
2023/09/03 00:58:48;;;;;;;;;;;;;;;12.76;100.00;102674.75;5033719;28;19929;-79
2023/09/03 01:01:35;;;;;;;;;;;;;;;12.77;100.00;102680.00;5036466;28;19932;-80
2023/09/03 01:04:21;;;;;;;;;;;;;;;12.77;100.00;102692.44;5034301;28;19981;-80
2023/09/03 01:07:07;;;;;;;;;;;;;;;12.77;100.00;102693.31;5037734;28;19964;-80
2023/09/03 01:09:53;;;;;;;;;;;;;;;12.78;100.00;102688.88;5033931;28;20015;-80
2023/09/03 01:12:44;;;;;;;;;;;;;;;12.78;100.00;102680.91;5035430;28;19932;-80
2023/09/03 01:15:32;;;;;;;;;;;;;;;12.81;100.00;102679.94;5035592;28;19933;-80
2023/09/03 01:18:19;;;;;;;;;;;;;;;12.80;100.00;102667.59;5031603;28;19928;-80
2023/09/03 01:21:04;;;;;;;;;;;;;;;12.78;100.00;102651.66;5036008;28;20383;-79
2023/09/03 01:23:56;;;;;;;;;;;;;;;12.78;100.00;102643.69;5034998;28;20526;-79
2023/09/03 01:26:51;;;;;;;;;;;;;;;12.78;100.00;102641.03;5019525;28;19925;-80
2023/09/03 01:29:36;;;;;;;;;;;;;;;12.77;100.00;102644.59;5018659;28;19924;-80
2023/09/03 01:32:22;;;;;;;;;;;;;;;12.75;100.00;102633.16;5034856;28;19968;-81
2023/09/03 01:35:10;;;;;;;;;;;;;;;12.74;100.00;102642.00;5031406;28;19932;-79
2023/09/03 01:37:56;;;;;;;;;;;;;;;12.73;100.00;102640.28;5032525;28;19929;-80
2023/09/03 01:40:44;;;;;;;;;;;;;;;12.72;100.00;102641.19;5029384;28;19955;-79
2023/09/03 01:43:29;;;;;;;;;;;;;;;12.71;100.00;102635.03;5004373;28;19947;-80
2023/09/03 01:46:19;;;;;;;;;;;;;;;12.71;100.00;102634.13;4989034;28;20430;-79
2023/09/03 01:49:11;;;;;;;;;;;;;;;12.68;100.00;102623.59;4977954;28;20163;-79
2023/09/03 01:52:19;;;;;;;;;;;;;;;12.66;100.00;102615.66;5004988;28;19929;-79
2023/09/03 01:55:07;;;;;;;;;;;;;;;12.63;100.00;102605.09;4987600;28;19935;-81
2023/09/03 01:57:53;;;;;;;;;;;;;;;12.61;100.00;102606.94;4984855;28;19927;-79
2023/09/03 02:00:42;;;;;;;;;;;;;;;12.60;100.00;102607.84;5000343;28;19940;-77
2023/09/03 02:03:27;;;;;;;;;;;;;;;12.58;100.00;102601.72;5035267;28;20374;-80
2023/09/03 02:06:13;;;;;;;;;;;;;;;12.57;100.00;102599.94;5028561;28;19929;-79
2023/09/03 02:08:59;;;;;;;;;;;;;;;12.54;100.00;102598.25;4963187;28;19931;-79
2023/09/03 02:11:44;;;;;;;;;;;;;;;12.51;100.00;102590.34;5011812;28;19929;-80
2023/09/03 02:14:30;;;;;;;;;;;;;;;12.50;100.00;102599.25;5034915;28;19928;-80
2023/09/03 02:17:19;;;;;;;;;;;;;;;12.47;100.00;102599.31;5031290;28;20767;-80
2023/09/03 02:20:06;;;;;;;;;;;;;;;12.43;100.00;102602.97;4993956;28;21405;-79
2023/09/03 02:22:54;;;;;;;;;;;;;;;12.39;100.00;102595.97;5032908;28;19933;-79
2023/09/03 02:25:40;;;;;;;;;;;;;;;12.34;100.00;102618.22;4993336;28;19944;-80
2023/09/03 02:28:26;;;;;;;;;;;;;;;12.32;100.00;102609.41;5011345;28;19933;-79
2023/09/03 02:31:12;;;;;;;;;;;;;;;12.30;100.00;102632.47;4975220;28;19948;-79
2023/09/03 02:33:58;;;;;;;;;;;;;;;12.26;100.00;102633.44;5011628;28;19928;-80
2023/09/03 02:36:43;;;;;;;;;;;;;;;12.25;100.00;102638.81;5003404;28;20033;-80
2023/09/03 02:39:29;;;;;;;;;;;;;;;12.21;100.00;102638.88;4986252;28;20641;-80
2023/09/03 02:42:15;;;;;;;;;;;;;;;12.18;100.00;102640.72;5030394;28;20398;-80
2023/09/03 02:45:00;;;;;;;;;;;;;;;12.15;100.00;102646.13;5031671;28;19928;-80
2023/09/03 02:47:46;;;;;;;;;;;;;;;12.12;100.00;102655.03;5033097;28;20049;-80
2023/09/03 02:50:36;;;;;;;;;;;;;;;12.10;100.00;102659.53;5031310;28;20015;-80
2023/09/03 02:53:25;;;;;;;;;;;;;;;12.09;100.00;102663.94;4992225;28;20467;-80
2023/09/03 02:56:10;;;;;;;;;;;;;;;12.06;100.00;102660.47;5024692;28;20245;-80
2023/09/03 02:58:56;;;;;;;;;;;;;;;12.01;100.00;102655.25;5015931;28;19932;-80
2023/09/03 03:01:42;;;;;;;;;;;;;;;11.97;100.00;102653.56;5028296;28;20245;-80
2023/09/03 03:04:27;;;;;;;;;;;;;;;11.92;100.00;102645.72;4981642;28;19931;-79
2023/09/03 03:07:13;;;;;;;;;;;;;;;11.88;100.00;102644.00;5025432;28;19929;-80
2023/09/03 03:10:00;;;;;;;;;;;;;;;11.86;100.00;102644.94;5032914;28;20311;-80
2023/09/03 03:12:45;;;;;;;;;;;;;;;11.82;100.00;102644.16;5019307;28;19933;-79
2023/09/03 03:15:34;;;;;;;;;;;;;;;11.80;100.00;102627.41;5016434;28;19936;-79
2023/09/03 03:18:19;;;;;;;;;;;;;;;11.81;100.00;102627.38;5031324;28;20406;-80
2023/09/03 03:21:08;;;;;;;;;;;;;;;11.80;100.00;102630.06;4995616;28;20000;-80
2023/09/03 03:23:54;;;;;;;;;;;;;;;11.76;100.00;102633.69;4981785;28;19926;-81
2023/09/03 03:26:39;;;;;;;;;;;;;;;11.71;100.00;102633.78;4994882;28;19929;-80
2023/09/03 03:29:25;;;;;;;;;;;;;;;11.66;100.00;102625.06;5018141;28;20288;-80
2023/09/03 03:32:11;;;;;;;;;;;;;;;11.64;100.00;102632.16;5031666;28;19973;-80
2023/09/03 03:34:59;;;;;;;;;;;;;;;11.61;100.00;102630.44;5031104;28;19928;-81
2023/09/03 03:37:45;;;;;;;;;;;;;;;11.60;100.00;102622.53;5026619;28;19928;-80
2023/09/03 03:40:31;;;;;;;;;;;;;;;11.58;100.00;102637.59;5031033;28;19925;-79
2023/09/03 03:43:16;;;;;;;;;;;;;;;11.56;100.00;102635.00;5000742;28;20381;-80
2023/09/03 03:46:02;;;;;;;;;;;;;;;11.55;100.00;102641.19;4986314;28;19938;-80
2023/09/03 03:48:48;;;;;;;;;;;;;;;11.54;100.00;102640.31;5010619;28;19925;-80
2023/09/03 03:51:34;;;;;;;;;;;;;;;11.54;100.00;102645.63;5025087;28;20291;-80
2023/09/03 03:54:19;;;;;;;;;;;;;;;11.58;100.00;102642.91;5030539;28;20674;-79
2023/09/03 03:57:07;;;;;;;;;;;;;;;11.60;100.00;102649.06;5031691;28;20070;-80
2023/09/03 03:59:53;;;;;;;;;;;;;;;11.63;100.00;102659.59;5029301;28;20355;-80
2023/09/03 04:02:38;;;;;;;;;;;;;;;11.64;100.00;102669.31;5032124;28;19937;-80
2023/09/03 04:05:24;;;;;;;;;;;;;;;11.69;100.00;102686.00;5018750;28;19929;-80
2023/09/03 04:08:09;;;;;;;;;;;;;;;11.71;100.00;102678.88;5030278;28;19932;-79
2023/09/03 04:10:59;;;;;;;;;;;;;;;11.73;100.00;102682.41;5031150;28;19936;-80
2023/09/03 04:13:44;;;;;;;;;;;;;;;11.77;100.00;102670.78;5029549;28;19929;-81
2023/09/03 04:16:30;;;;;;;;;;;;;;;11.81;100.00;102679.56;5026766;28;19929;-80
2023/09/03 04:19:16;;;;;;;;;;;;;;;11.84;100.00;102678.63;5031220;28;19933;-79
2023/09/03 04:22:12;;;;;;;;;;;;;;;11.85;100.00;102665.34;5027422;28;20353;-79
2023/09/03 04:24:57;;;;;;;;;;;;;;;11.86;100.00;102666.19;5029195;28;20544;-80
2023/09/03 04:27:43;;;;;;;;;;;;;;;11.85;100.00;102686.56;5017280;28;19995;-80
2023/09/03 04:30:29;;;;;;;;;;;;;;;11.86;100.00;102695.38;5027170;28;20381;-80
2023/09/03 04:33:17;;;;;;;;;;;;;;;11.85;100.00;102693.63;4999246;28;19966;-80
2023/09/03 04:36:03;;;;;;;;;;;;;;;11.85;100.00;102696.28;4979311;28;19927;-80
2023/09/03 04:38:49;;;;;;;;;;;;;;;11.85;100.00;102706.91;5013809;28;20466;-80
2023/09/03 04:41:35;;;;;;;;;;;;;;;11.85;100.00;102701.59;5029969;28;19932;-80
2023/09/03 04:44:20;;;;;;;;;;;;;;;11.85;100.00;102701.59;4987176;28;20033;-78
2023/09/03 04:47:06;;;;;;;;;;;;;;;11.85;100.00;102696.28;5015649;28;20313;-79
2023/09/03 04:49:52;;;;;;;;;;;;;;;11.84;100.00;102711.34;4998228;28;19935;-79
2023/09/03 04:52:41;;;;;;;;;;;;;;;11.84;100.00;102711.34;5008281;28;20414;-80
2023/09/03 04:55:30;;;;;;;;;;;;;;;11.84;100.00;102707.81;4976054;28;20302;-80
2023/09/03 04:58:16;;;;;;;;;;;;;;;11.86;100.00;102724.56;5024782;28;20394;-79
2023/09/03 05:01:02;;;;;;;;;;;;;;;11.87;100.00;102724.53;5026680;28;19933;-81
2023/09/03 05:03:47;;;;;;;;;;;;;;;11.89;100.00;102740.44;5014598;28;20340;-78
2023/09/03 05:06:33;;;;;;;;;;;;;;;11.89;100.00;102736.03;5024678;28;19932;-80
2023/09/03 05:09:18;;;;;;;;;;;;;;;11.91;100.00;102728.00;5016472;28;19933;-80
2023/09/03 05:12:04;;;;;;;;;;;;;;;11.92;100.00;102737.72;5029579;28;19925;-80
2023/09/03 05:14:50;;;;;;;;;;;;;;;11.92;100.00;102732.41;5007187;28;20002;-80
2023/09/03 05:17:35;;;;;;;;;;;;;;;11.94;100.00;102744.75;5015621;28;19933;-79
2023/09/03 05:20:21;;;;;;;;;;;;;;;11.97;100.00;102751.78;5027388;28;19937;-79
2023/09/03 05:23:07;;;;;;;;;;;;;;;12.00;100.00;102753.50;5029403;28;19929;-79
2023/09/03 05:25:52;;;;;;;;;;;;;;;12.02;100.00;102756.97;5028906;28;19932;-80
2023/09/03 05:28:38;;;;;;;;;;;;;;;12.05;100.00;102751.66;5029950;28;20372;-80
2023/09/03 05:31:24;;;;;;;;;;;;;;;12.11;100.00;102750.63;5028603;28;20514;-80
2023/09/03 05:34:09;;;;;;;;;;;;;;;12.14;100.00;102750.59;5028934;28;20230;-80
2023/09/03 05:36:55;;;;;;;;;;;;;;;12.17;100.00;102751.41;4988355;28;19931;-79
2023/09/03 05:39:41;;;;;;;;;;;;;;;12.23;100.00;102763.66;4992524;28;19936;-79
2023/09/03 05:42:26;;;;;;;;;;;;;;;12.27;100.00;102768.00;5026881;28;20024;-80
2023/09/03 05:45:12;;;;;;;;;;;;;;;12.33;100.00;102766.97;5028002;28;19935;-79
2023/09/03 05:47:58;;;;;;;;;;;;;;;12.35;100.00;102768.69;5014857;28;20024;-81
2023/09/03 05:50:43;;;;;;;;;;;;;;;12.40;100.00;102773.91;5027469;28;19933;-79
2023/09/03 05:53:30;;;;;;;;;;;;;;;12.45;100.00;102771.13;5029343;28;20112;-80
2023/09/03 05:56:15;;;;;;;;;;;;;;;12.52;100.00;102774.53;5015000;28;19931;-79
2023/09/03 05:59:05;;;;;;;;;;;;;;;12.56;100.00;102769.13;5029301;28;20022;-81
2023/09/03 06:01:50;;;;;;;;;;;;;;;12.65;100.00;102772.47;5029082;28;19928;-80
2023/09/03 06:04:36;;;;;;;;;;;;;;;12.71;100.00;102783.84;5028042;28;20403;-80
2023/09/03 06:07:22;;;;;;;;;;;;;;;12.79;100.00;102778.31;5029079;28;20371;-80
2023/09/03 06:10:07;;;;;;;;;;;;;;;12.87;100.00;102783.47;4975082;28;19934;-80
2023/09/03 06:12:53;;;;;;;;;;;;;;;12.94;100.00;102785.06;5029895;28;20041;-80
2023/09/03 06:15:41;;;;;;;;;;;;;;;13.01;100.00;102777.78;5033119;28;20067;-80
2023/09/03 06:18:27;;;;;;;;;;;;;;;13.08;100.00;102782.03;5031401;28;20376;-79
2023/09/03 06:21:13;;;;;;;;;;;;;;;13.15;100.00;102786.31;5006783;28;19927;-79
2023/09/03 06:24:01;;;;;;;;;;;;;;;13.24;100.00;102794.97;5033282;28;19935;-78
2023/09/03 06:26:47;;;;;;;;;;;;;;;13.34;100.00;102792.94;5031409;28;20624;-80
2023/09/03 06:29:32;;;;;;;;;;;;;;;13.46;100.00;102792.66;5013305;28;19929;-81
2023/09/03 06:32:18;;;;;;;;;;;;;;;13.57;100.00;102789.72;5030519;28;20307;-79
2023/09/03 06:35:04;;;;;;;;;;;;;;;13.67;100.00;102785.00;5015731;28;20632;-81
2023/09/03 06:37:50;;;;;;;;;;;;;;;13.77;100.00;102788.28;5031548;28;19935;-79
2023/09/03 06:40:35;;;;;;;;;;;;;;;13.92;100.00;102789.63;5032411;28;19929;-78
2023/09/03 06:43:21;;;;;;;;;;;;;;;14.10;100.00;102782.88;5033440;28;20551;-80
2023/09/03 06:46:07;;;;;;;;;;;;;;;14.25;100.00;102777.13;5032582;28;19929;-80
2023/09/03 06:48:52;;;;;;;;;;;;;;;14.38;100.00;102782.94;5031175;28;20299;-80
2023/09/03 06:51:38;;;;;;;;;;;;;;;14.48;100.00;102798.63;5030631;28;20295;-80
2023/09/03 06:54:24;;;;;;;;;;;;;;;14.60;100.00;102797.38;4999255;28;20678;-80
2023/09/03 06:57:11;;;;;;;;;;;;;;;14.73;100.00;102788.09;5030421;28;20276;-80
2023/09/03 06:59:57;;;;;;;;;;;;;;;14.88;100.00;102799.19;5017007;28;20632;-80
2023/09/03 07:02:43;;;;;;;;;;;;;;;15.01;100.00;102800.53;5017790;28;20382;-80
2023/09/03 07:05:29;;;;;;;;;;;;;;;15.16;100.00;102795.63;4990729;28;19968;-80
2023/09/03 07:08:14;;;;;;;;;;;;;;;15.30;100.00;102793.34;5030419;28;19937;-80
2023/09/03 07:11:00;;;;;;;;;;;;;;;15.45;100.00;102788.38;5031722;28;19929;-80
2023/09/03 07:13:46;;;;;;;;;;;;;;;15.60;100.00;102779.81;5029811;28;20015;-80
2023/09/03 07:16:32;;;;;;;;;;;;;;;15.72;100.00;102783.88;5015786;28;19933;-80
2023/09/03 07:19:18;;;;;;;;;;;;;;;15.89;100.00;102788.59;5026817;28;20392;-81
2023/09/03 07:22:04;;;;;;;;;;;;;;;16.00;100.00;102787.34;5031848;28;20375;-80
2023/09/03 07:24:52;;;;;;;;;;;;;;;16.07;100.00;102782.66;5026670;28;19930;-80
2023/09/03 07:27:39;;;;;;;;;;;;;;;16.18;100.00;102792.91;5031267;28;19933;-80
2023/09/03 07:30:24;;;;;;;;;;;;;;;16.24;100.00;102800.69;5032387;28;19982;-80
2023/09/03 07:33:10;;;;;;;;;;;;;;;16.32;100.00;102792.38;5031598;28;19929;-80
2023/09/03 07:35:55;;;;;;;;;;;;;;;16.39;100.00;102800.09;5031798;28;20387;-80
2023/09/03 07:38:41;;;;;;;;;;;;;;;16.50;100.00;102814.84;5029962;28;20091;-79
2023/09/03 07:41:27;;;;;;;;;;;;;;;16.56;100.00;102806.56;5029855;28;19929;-80
2023/09/03 07:44:12;;;;;;;;;;;;;;;16.63;100.00;102808.09;5031404;28;20037;-80
2023/09/03 07:46:58;;;;;;;;;;;;;;;16.72;100.00;102811.31;5031278;28;19992;-80
2023/09/03 07:49:44;;;;;;;;;;;;;;;16.79;100.00;102802.97;5028819;28;19936;-81
2023/09/03 07:52:29;;;;;;;;;;;;;;;16.81;100.00;102801.13;4989560;28;20443;-80
2023/09/03 07:55:15;;;;;;;;;;;;;;;16.80;100.00;102807.41;5031374;28;20371;-80
2023/09/03 07:58:01;;;;;;;;;;;;;;;16.82;100.00;102813.56;5027668;28;20473;-81
2023/09/03 08:00:46;;;;;;;;;;;;;;;16.85;100.00;102815.25;5008234;28;19933;-80
2023/09/03 08:03:35;;;;;;;;;;;;;;;16.91;100.00;102816.78;5030579;28;19929;-80
2023/09/03 08:06:21;;;;;;;;;;;;;;;16.99;100.00;102825.34;5009407;28;19925;-80
2023/09/03 08:09:06;;;;;;;;;;;;;;;17.11;100.00;102832.06;4965921;28;19942;-80
2023/09/03 08:11:52;;;;;;;;;;;;;;;17.23;100.00;102844.91;5004070;28;19933;-80
2023/09/03 08:14:39;;;;;;;;;;;;;;;17.36;100.00;102845.25;5030807;28;19929;-79
2023/09/03 08:17:26;;;;;;;;;;;;;;;17.43;100.00;102835.16;5028621;28;19929;-79
2023/09/03 08:20:12;;;;;;;;;;;;;;;17.56;100.00;102839.97;4998850;28;20025;-81
2023/09/03 08:22:57;;;;;;;;;;;;;;;17.68;100.00;102833.19;4995067;28;20384;-80
2023/09/03 08:25:43;;;;;;;;;;;;;;;17.76;100.00;102841.78;4991713;28;20406;-79
2023/09/03 08:28:29;;;;;;;;;;;;;;;17.85;100.00;102843.16;5026821;28;19949;-81
2023/09/03 08:31:14;;;;;;;;;;;;;;;17.91;100.00;102840.22;4995736;28;19927;-79
2023/09/03 08:34:00;;;;;;;;;;;;;;;17.98;100.00;102849.72;4979095;28;20508;-80
2023/09/03 08:36:46;;;;;;;;;;;;;;;18.07;100.00;102839.56;5000134;28;19925;-80
2023/09/03 08:39:31;;;;;;;;;;;;;;;18.20;100.00;102840.75;5014514;28;19948;-80
2023/09/03 08:42:19;;;;;;;;;;;;;;;18.40;100.00;102842.47;5016698;28;19948;-80
2023/09/03 08:45:06;;;;;;;;;;;;;;;18.56;100.00;102844.41;5014416;28;20418;-79
2023/09/03 08:47:51;;;;;;;;;;;;;;;18.71;100.00;102845.50;5029405;28;19925;-79
2023/09/03 08:50:37;;;;;;;;;;;;;;;18.83;100.00;102842.22;5028523;28;19940;-79
2023/09/03 08:53:23;;;;;;;;;;;;;;;18.92;100.00;102843.59;5027016;28;19928;-79
2023/09/03 08:56:08;;;;;;;;;;;;;;;19.00;100.00;102840.50;5030121;28;19925;-79
2023/09/03 08:58:54;;;;;;;;;;;;;;;19.15;100.00;102844.28;5029691;28;19935;-79
2023/09/03 09:01:40;;;;;;;;;;;;;;;19.24;100.00;102851.84;5026930;28;19935;-79
2023/09/03 09:04:29;;;;;;;;;;;;;;;19.39;100.00;102858.28;4993557;28;19931;-80
2023/09/03 09:07:14;;;;;;;;;;;;;;;19.57;100.00;102868.13;5028483;28;19931;-79
2023/09/03 09:10:06;;;;;;;;;;;;;;;19.58;100.00;102876.13;5029379;28;19929;-78
2023/09/03 09:13:01;;;;;;;;;;;;;;;19.63;100.00;102883.94;5014776;28;21846;-79
2023/09/03 09:15:47;;;;;;;;;;;;;;;19.76;100.00;102886.84;5028970;28;19936;-80
2023/09/03 09:18:33;;;;;;;;;;;;;;;19.89;100.00;102887.09;5027452;28;19929;-80
2023/09/03 09:21:18;;;;;;;;;;;;;;;19.97;100.00;102894.75;5028544;28;19936;-79
2023/09/03 09:24:05;;;;;;;;;;;;;;;20.05;100.00;102898.78;5029026;28;19946;-79
2023/09/03 09:26:51;;;;;;;;;;;;;;;20.17;100.00;102889.19;5025322;28;20109;-79
2023/09/03 09:29:37;;;;;;;;;;;;;;;20.36;100.00;102890.88;5029693;28;20628;-78
2023/09/03 09:32:23;;;;;;;;;;;;;;;20.41;100.00;102886.09;5028942;28;20424;-78
2023/09/03 09:35:12;;;;;;;;;;;;;;;20.35;100.00;102883.75;4982792;28;20589;-79
2023/09/03 09:38:07;;;;;;;;;;;;;;;20.41;100.00;102891.47;4992175;28;20007;-78
2023/09/03 09:40:53;;;;;;;;;;;;;;;20.55;100.00;102898.81;4998870;28;19940;-78
2023/09/03 09:43:45;;;;;;;;;;;;;;;20.58;100.00;102890.53;5029376;28;20402;-79
2023/09/03 09:46:31;;;;;;;;;;;;;;;20.61;100.00;102889.50;5014047;28;19928;-79
2023/09/03 09:49:17;;;;;;;;;;;;;;;20.64;100.00;102889.31;4998996;28;19926;-79
2023/09/03 09:52:02;;;;;;;;;;;;;;;20.57;100.00;102893.31;5007086;28;19932;-79
2023/09/03 09:54:48;;;;;;;;;;;;;;;20.55;100.00;102895.22;5029706;28;19932;-80
2023/09/03 09:57:34;;;;;;;;;;;;;;;20.52;100.00;102892.72;5024884;28;19975;-79
2023/09/03 10:00:31;;;;;;;;;;;;;;;20.52;100.00;102892.72;5026606;28;20027;-79
2023/09/03 10:03:16;;;;;;;;;;;;;;;20.58;100.00;102895.03;4998943;28;19961;-78
2023/09/03 10:06:02;;;;;;;;;;;;;;;20.58;100.00;102901.31;5029938;28;19933;-79
2023/09/03 10:08:49;;;;;;;;;;;;;;;20.55;100.00;102906.88;5023601;28;19990;-79
2023/09/03 10:11:34;;;;;;;;;;;;;;;20.47;100.00;102893.84;4987943;28;20023;-79
2023/09/03 10:14:20;;;;;;;;;;;;;;;20.32;100.00;102902.75;5027100;28;19939;-80
2023/09/03 10:17:06;;;;;;;;;;;;;;;20.25;100.00;102901.38;5028209;28;19933;-79
2023/09/03 10:19:55;;;;;;;;;;;;;;;20.31;100.00;102906.38;5023336;28;19935;-79
2023/09/03 10:22:41;;;;;;;;;;;;;;;20.25;100.00;102904.06;5015387;28;19935;-79
2023/09/03 10:25:28;;;;;;;;;;;;;;;20.15;100.00;102915.28;5027546;28;20071;-80
2023/09/03 10:28:13;;;;;;;;;;;;;;;20.08;100.00;102904.00;5028697;28;19929;-80
2023/09/03 10:30:59;;;;;;;;;;;;;;;20.08;100.00;102914.75;5025855;28;20336;-79
2023/09/03 10:33:45;;;;;;;;;;;;;;;20.07;100.00;102918.41;5026678;28;19935;-79
2023/09/03 10:36:30;;;;;;;;;;;;;;;20.12;100.00;102914.59;4980488;28;21566;-79
2023/09/03 10:39:22;;;;;;;;;;;;;;;20.08;100.00;102909.38;5028010;28;20379;-80
2023/09/03 10:42:14;;;;;;;;;;;;;;;20.08;100.00;102913.88;4994148;28;19934;-80
2023/09/03 10:45:00;;;;;;;;;;;;;;;20.08;100.00;102919.25;5028514;28;20024;-78
2023/09/03 10:48:01;;;;;;;;;;;;;;;20.06;100.00;102913.09;5028424;28;19928;-77
2023/09/03 10:50:50;;;;;;;;;;;;;;;20.05;100.00;102916.75;5028282;28;20373;-78
2023/09/03 10:53:43;;;;;;;;;;;;;;;20.02;100.00;102916.88;4999147;28;19924;-80
2023/09/03 10:56:31;;;;;;;;;;;;;;;19.96;100.00;102912.72;5014360;28;19925;-79
2023/09/03 10:59:16;;;;;;;;;;;;;;;20.01;100.00;102907.09;5015281;28;19933;-80
2023/09/03 11:02:31;;;;;;;;;;;;;;;20.09;100.00;102921.00;5031457;28;19932;-80
2023/09/03 11:05:19;;;;;;;;;;;;;;;20.12;100.00;102915.47;5026573;28;19925;-80
2023/09/03 11:08:22;;;;;;;;;;;;;;;20.13;100.00;102921.69;5030121;28;20027;-80
2023/09/03 11:11:10;;;;;;;;;;;;;;;20.06;100.00;102911.25;5029033;28;21062;-80
2023/09/03 11:13:55;;;;;;;;;;;;;;;20.04;100.00;102915.00;5016872;28;19933;-79
2023/09/03 11:16:41;;;;;;;;;;;;;;;20.12;100.00;102920.84;5018725;28;20002;-79
2023/09/03 11:19:37;;;;;;;;;;;;;;;20.22;100.00;102922.06;5031278;28;19939;-80
2023/09/03 11:22:23;;;;;;;;;;;;;;;20.22;100.00;102910.47;5016850;28;19921;-80
2023/09/03 11:25:11;;;;;;;;;;;;;;;20.17;100.00;102910.72;5032427;28;19982;-80
2023/09/03 11:27:57;;;;;;;;;;;;;;;20.15;100.00;102907.22;5052276;28;19932;-80
2023/09/03 11:30:44;;;;;;;;;;;;;;;20.10;100.00;102898.53;5044224;28;20303;-81
2023/09/03 11:33:29;;;;;;;;;;;;;;;20.08;100.00;102904.00;5017570;28;19975;-79
2023/09/03 11:36:15;;;;;;;;;;;;;;;20.08;100.00;102898.63;5016137;28;21427;-81
2023/09/03 11:39:01;;;;;;;;;;;;;;;20.11;100.00;102896.72;5028086;28;20268;-79
2023/09/03 11:41:46;;;;;;;;;;;;;;;20.18;100.00;102901.69;5004806;28;20428;-79
2023/09/03 11:44:32;;;;;;;;;;;;;;;20.24;100.00;102900.47;4990485;28;20908;-80
2023/09/03 11:47:18;;;;;;;;;;;;;;;20.23;100.00;102901.44;4993689;28;19930;-80
2023/09/03 11:50:10;;;;;;;;;;;;;;;20.16;100.00;102895.50;5020201;28;20295;-81
2023/09/03 11:52:59;;;;;;;;;;;;;;;20.05;100.00;102904.16;5014360;28;19928;-81
2023/09/03 11:55:46;;;;;;;;;;;;;;;20.04;100.00;102902.41;5006007;28;19988;-80
2023/09/03 11:58:34;;;;;;;;;;;;;;;20.00;100.00;102903.53;4993777;28;19928;-80
2023/09/03 12:01:20;;;;;;;;;;;;;;;20.03;100.00;102897.13;4991630;28;20572;-81
2023/09/03 12:04:06;;;;;;;;;;;;;;;20.07;100.00;102896.00;5018494;28;19928;-80
2023/09/03 12:06:52;;;;;;;;;;;;;;;20.04;100.00;102890.81;4986940;28;19949;-80
2023/09/03 12:09:38;;;;;;;;;;;;;;;20.13;100.00;102889.44;4994484;28;19938;-81
2023/09/03 12:12:24;;;;;;;;;;;;;;;20.27;100.00;102892.22;4992192;28;19928;-81
2023/09/03 12:15:17;;;;;;;;;;;;;;;20.37;100.00;102892.59;5031059;28;19936;-79
2023/09/03 12:18:12;;;;;;;;;;;;;;;20.41;100.00;102899.56;4983699;28;19927;-80
2023/09/03 12:20:57;;;;;;;;;;;;;;;20.32;100.00;102894.69;5005823;28;19935;-80
2023/09/03 12:23:44;;;;;;;;;;;;;;;20.27;100.00;102903.00;5031849;28;20026;-80
2023/09/03 12:26:30;;;;;;;;;;;;;;;20.28;100.00;102890.44;4991807;28;21542;-80
2023/09/03 12:29:19;;;;;;;;;;;;;;;20.27;100.00;102891.38;5019383;28;21492;-80
2023/09/03 12:32:09;;;;;;;;;;;;;;;20.25;100.00;102888.75;5017593;28;19924;-80
2023/09/03 12:34:55;;;;;;;;;;;;;;;20.29;100.00;102878.72;5034151;28;19956;-81
2023/09/03 12:37:40;;;;;;;;;;;;;;;20.34;100.00;102879.34;4999088;28;20017;-80
2023/09/03 12:40:26;;;;;;;;;;;;;;;20.37;100.00;102881.00;5028355;28;19932;-81
2023/09/03 12:43:11;;;;;;;;;;;;;;;20.42;100.00;102885.16;5029564;28;19929;-81
2023/09/03 12:45:57;;;;;;;;;;;;;;;20.59;100.00;102877.97;5031298;28;19952;-80
2023/09/03 12:48:44;;;;;;;;;;;;;;;20.82;100.00;102879.38;5016894;28;19936;-80
2023/09/03 12:51:30;;;;;;;;;;;;;;;20.94;100.00;102875.13;5029093;28;19940;-79
2023/09/03 12:54:15;;;;;;;;;;;;;;;20.99;97.46;102877.53;4997574;28;19934;-81
2023/09/03 12:57:01;;;;;;;;;;;;;;;21.07;100.00;102882.50;4974824;28;20396;-80
2023/09/03 12:59:47;;;;;;;;;;;;;;;21.15;100.00;102877.53;4999580;28;19935;-80
2023/09/03 13:02:35;;;;;;;;;;;;;;;21.24;99.61;102879.66;5030697;28;19933;-80
2023/09/03 13:05:21;;;;;;;;;;;;;;;21.30;96.50;102868.53;5029483;28;19939;-80
2023/09/03 13:08:07;;;;;;;;;;;;;;;21.28;98.63;102883.91;5029332;28;19933;-80
2023/09/03 13:10:53;;;;;;;;;;;;;;;21.32;99.17;102881.03;5030393;28;19929;-80
2023/09/03 13:13:38;;;;;;;;;;;;;;;21.30;98.69;102882.00;5028795;28;19933;-80
2023/09/03 13:16:27;;;;;;;;;;;;;;;21.24;99.03;102885.03;5028573;28;19951;-80
2023/09/03 13:19:13;;;;;;;;;;;;;;;21.19;100.00;102872.81;5029743;28;20443;-80
2023/09/03 13:21:58;;;;;;;;;;;;;;;21.15;100.00;102875.66;5028317;28;20026;-80
2023/09/03 13:24:45;;;;;;;;;;;;;;;21.16;100.00;102865.78;5029961;28;19936;-79
2023/09/03 13:27:31;;;;;;;;;;;;;;;21.17;97.14;102864.81;5025653;28;20044;-79
2023/09/03 13:30:16;;;;;;;;;;;;;;;21.21;100.00;102866.38;5029394;28;20315;-81
2023/09/03 13:33:03;;;;;;;;;;;;;;;21.29;99.23;102863.22;4997273;28;19930;-81
2023/09/03 13:35:52;;;;;;;;;;;;;;;21.29;95.74;102868.59;5003566;28;19925;-82
2023/09/03 13:38:37;;;;;;;;;;;;;;;21.28;96.80;102859.69;5028317;28;20307;-81
2023/09/03 13:41:23;;;;;;;;;;;;;;;21.25;98.10;102859.84;5028882;28;19929;-81
2023/09/03 13:44:12;;;;;;;;;;;;;;;21.20;97.33;102856.59;4990601;28;19935;-80
2023/09/03 13:46:58;;;;;;;;;;;;;;;21.21;97.51;102861.00;4982115;28;19931;-81
2023/09/03 13:49:43;;;;;;;;;;;;;;;21.27;96.88;102859.75;5001942;28;20371;-80
2023/09/03 13:52:29;;;;;;;;;;;;;;;21.27;97.65;102875.91;5029864;28;19964;-79
2023/09/03 13:55:15;;;;;;;;;;;;;;;21.24;95.37;102882.34;5028956;28;19924;-81
2023/09/03 13:58:02;;;;;;;;;;;;;;;21.21;96.30;102881.66;4995541;28;19984;-81
2023/09/03 14:00:47;;;;;;;;;;;;;;;21.17;94.96;102878.28;5007951;28;19970;-80
2023/09/03 14:03:33;;;;;;;;;;;;;;;21.11;94.66;102874.13;5008755;28;19932;-80
2023/09/03 14:06:19;;;;;;;;;;;;;;;21.06;95.06;102875.34;5027758;28;20348;-80